Time;durP1;ratioP1;P1;durP2;ratioP2;P2;SDS_P1;SDS_P2;PMS_P1;PMS_P2;Temp;Humidity;BMP_temperature;BMP_pressure;BME280_temperature;BME280_humidity;BME280_pressure;Samples;Min_cycle;Max_cycle;Signal;HPM_P1;HPM_P2
2024/01/12 00:01:45;;;;;;;23.85;10.27;;;;;;;8.86;43.28;103138.06;4974303;28;20060;-66
2024/01/12 00:04:11;;;;;;;21.35;9.77;;;;;;;8.85;42.91;103133.69;4956798;28;20031;-66
2024/01/12 00:06:36;;;;;;;21.70;9.70;;;;;;;8.86;43.26;103140.75;4974356;28;20031;-66
2024/01/12 00:09:03;;;;;;;24.55;10.07;;;;;;;8.87;43.04;103139.84;4974549;28;20400;-66
2024/01/12 00:11:28;;;;;;;25.15;10.38;;;;;;;8.85;43.04;103131.00;4973530;28;20035;-66
2024/01/12 00:13:54;;;;;;;19.33;9.50;;;;;;;8.85;43.05;103139.03;4972866;28;20439;-66
2024/01/12 00:16:20;;;;;;;25.88;9.15;;;;;;;8.81;43.72;103124.91;4972881;28;20050;-66
2024/01/12 00:18:46;;;;;;;22.27;10.40;;;;;;;8.82;43.50;103136.47;4976074;28;20502;-65
2024/01/12 00:21:11;;;;;;;20.15;9.95;;;;;;;8.82;43.84;103131.13;4976812;28;20114;-66
2024/01/12 00:23:36;;;;;;;21.75;10.45;;;;;;;8.81;43.14;103134.72;4977872;28;20122;-66
2024/01/12 00:26:02;;;;;;;25.13;9.98;;;;;;;8.82;43.90;103132.00;4976566;28;20232;-66
2024/01/12 00:28:28;;;;;;;21.35;10.05;;;;;;;8.84;43.65;103134.59;4977676;28;20379;-66
2024/01/12 00:30:54;;;;;;;21.88;10.48;;;;;;;8.82;43.29;103125.78;4977691;28;20042;-66
2024/01/12 00:33:20;;;;;;;22.00;10.45;;;;;;;8.85;43.53;103123.00;4964179;28;20039;-66
2024/01/12 00:35:45;;;;;;;17.30;9.10;;;;;;;8.83;43.96;103119.50;4954203;28;20038;-66
2024/01/12 00:38:11;;;;;;;18.75;9.85;;;;;;;8.84;43.56;103126.59;4976241;28;20039;-66
2024/01/12 00:40:36;;;;;;;22.35;10.90;;;;;;;8.81;43.47;103121.38;4979965;28;20069;-66
2024/01/12 00:43:02;;;;;;;23.35;9.95;;;;;;;8.82;43.24;103125.78;4996927;28;20247;-66
2024/01/12 00:45:27;;;;;;;27.08;9.95;;;;;;;8.83;43.61;103138.19;4995612;28;20061;-66
2024/01/12 00:47:53;;;;;;;20.45;10.23;;;;;;;8.84;43.47;103129.25;4979644;28;20038;-66
2024/01/12 00:50:18;;;;;;;21.83;9.88;;;;;;;8.81;43.75;103118.69;4997049;28;20622;-66
2024/01/12 00:52:44;;;;;;;21.13;10.45;;;;;;;8.82;44.02;103125.78;4996878;28;20138;-66
2024/01/12 00:55:11;;;;;;;27.02;10.77;;;;;;;8.85;43.95;103133.69;4995700;28;20026;-66
2024/01/12 00:57:36;;;;;;;23.00;10.55;;;;;;;8.84;43.18;103130.13;4995323;28;20045;-66
2024/01/12 01:00:03;;;;;;;22.58;11.60;;;;;;;8.86;43.62;103127.38;4996792;28;20034;-66
2024/01/12 01:02:29;;;;;;;22.77;10.60;;;;;;;8.86;43.88;103138.06;4995540;28;20085;-66
2024/01/12 01:04:55;;;;;;;25.10;11.70;;;;;;;8.87;43.95;103145.19;4995323;28;20030;-66
2024/01/12 01:07:20;;;;;;;24.75;11.02;;;;;;;8.87;43.84;103145.19;4996396;28;20053;-66
2024/01/12 01:09:46;;;;;;;24.67;11.15;;;;;;;8.87;43.68;103134.47;4995158;28;20030;-66
2024/01/12 01:12:11;;;;;;;32.95;11.45;;;;;;;8.87;43.98;103140.72;4995136;28;20088;-66
2024/01/12 01:14:37;;;;;;;25.02;12.13;;;;;;;8.87;43.53;103143.38;4994923;28;20406;-66
2024/01/12 01:17:02;;;;;;;22.23;10.32;;;;;;;8.84;44.32;103139.94;4995031;28;20517;-65
2024/01/12 01:19:28;;;;;;;26.92;10.90;;;;;;;8.86;43.48;103138.06;4994926;28;20031;-66
2024/01/12 01:21:53;;;;;;;21.40;11.30;;;;;;;8.83;43.35;103138.19;4996482;28;20057;-66
2024/01/12 01:24:18;;;;;;;26.30;10.13;;;;;;;8.83;43.60;103135.53;4995115;28;20380;-66
2024/01/12 01:26:44;;;;;;;21.77;10.45;;;;;;;8.84;43.77;103137.28;4994817;28;20576;-67
2024/01/12 01:29:09;;;;;;;20.55;9.68;;;;;;;8.82;43.86;103136.47;4994349;28;20053;-66
2024/01/12 01:31:34;;;;;;;22.70;11.70;;;;;;;8.84;44.29;103143.50;4994784;28;20042;-66
2024/01/12 01:34:00;;;;;;;23.50;11.57;;;;;;;8.84;43.71;103146.16;4994718;28;20034;-66
2024/01/12 01:36:25;;;;;;;23.85;11.52;;;;;;;8.82;43.59;103147.16;4994752;28;20035;-66
2024/01/12 01:38:51;;;;;;;25.05;11.70;;;;;;;8.84;43.80;103137.28;4995883;28;20035;-66
2024/01/12 01:41:16;;;;;;;26.75;12.70;;;;;;;8.86;43.83;103148.78;4996107;28;20046;-66
2024/01/12 01:43:42;;;;;;;22.45;10.95;;;;;;;8.85;43.87;103152.41;4994489;28;20061;-66
2024/01/12 01:46:07;;;;;;;31.17;11.55;;;;;;;8.88;44.14;103154.94;4995800;28;20041;-65
2024/01/12 01:48:33;;;;;;;23.92;11.38;;;;;;;8.86;43.79;103157.66;4995602;28;20402;-66
2024/01/12 01:50:59;;;;;;;27.27;11.75;;;;;;;8.88;44.64;103152.28;4995367;28;20030;-66
2024/01/12 01:53:24;;;;;;;30.10;11.60;;;;;;;8.89;44.38;103160.22;4994560;28;20030;-66
2024/01/12 01:55:49;;;;;;;43.30;13.73;;;;;;;8.92;44.20;103169.91;4994060;28;20113;-66
2024/01/12 01:58:16;;;;;;;34.72;13.55;;;;;;;8.93;44.33;103171.66;4994232;28;20054;-66
2024/01/12 02:00:41;;;;;;;32.88;12.38;;;;;;;8.94;43.79;103178.72;4978015;28;20462;-66
2024/01/12 02:03:07;;;;;;;35.05;12.85;;;;;;;8.95;44.78;103167.13;4995414;28;20062;-65
2024/01/12 02:05:34;;;;;;;36.47;15.52;;;;;;;8.96;44.22;103168.88;4994038;28;20069;-66
2024/01/12 02:08:00;;;;;;;33.20;12.77;;;;;;;8.93;44.39;103161.84;4995203;28;20030;-66
2024/01/12 02:10:25;;;;;;;42.60;14.82;;;;;;;8.94;44.45;103154.66;4977775;28;20037;-66
2024/01/12 02:12:51;;;;;;;35.80;13.55;;;;;;;8.94;44.20;103155.56;4994044;28;20030;-66
2024/01/12 02:15:18;;;;;;;33.08;14.13;;;;;;;8.95;44.17;103164.44;4995159;28;20080;-66
2024/01/12 02:17:43;;;;;;;40.28;13.15;;;;;;;8.94;44.18;103154.66;4995024;28;20057;-66
2024/01/12 02:20:09;;;;;;;29.23;13.40;;;;;;;8.94;44.90;103152.00;4993928;28;20041;-66
2024/01/12 02:22:34;;;;;;;36.08;12.82;;;;;;;8.98;44.81;103156.31;4993848;28;20519;-66
2024/01/12 02:25:01;;;;;;;37.00;13.63;;;;;;;8.99;44.54;103158.91;4993978;28;20035;-66
2024/01/12 02:27:26;;;;;;;38.05;13.55;;;;;;;8.97;44.84;103160.78;4993901;28;20030;-66
2024/01/12 02:29:52;;;;;;;27.70;12.75;;;;;;;8.99;44.82;103155.38;4993866;28;20105;-66
2024/01/12 02:32:17;;;;;;;28.25;12.65;;;;;;;9.01;44.57;103158.84;4993777;28;20482;-66
2024/01/12 02:34:43;;;;;;;33.38;12.40;;;;;;;8.99;44.45;103155.38;4993574;28;20100;-67
2024/01/12 02:37:08;;;;;;;30.27;12.60;;;;;;;8.95;44.00;103143.06;4993409;28;20034;-66
2024/01/12 02:39:34;;;;;;;33.03;11.60;;;;;;;8.97;44.72;103135.84;4977222;28;20512;-67
2024/01/12 02:41:59;;;;;;;29.70;12.20;;;;;;;8.97;44.46;103135.84;4992788;28;20037;-66
2024/01/12 02:44:25;;;;;;;30.08;13.10;;;;;;;8.96;44.54;103139.47;4993452;28;20034;-66
2024/01/12 02:46:50;;;;;;;26.38;12.80;;;;;;;8.95;44.53;103129.69;4993437;28;20036;-66
2024/01/12 02:49:15;;;;;;;35.17;12.60;;;;;;;8.94;44.01;103131.50;4994524;28;20038;-65
2024/01/12 02:51:41;;;;;;;37.25;13.68;;;;;;;8.93;44.62;103129.78;4976976;28;20410;-66
2024/01/12 02:54:07;;;;;;;31.55;13.10;;;;;;;8.91;44.18;103120.03;4994406;28;20034;-66
2024/01/12 02:56:32;;;;;;;41.05;13.10;;;;;;;8.93;44.78;103123.56;4994299;28;20050;-66
2024/01/12 02:58:58;;;;;;;31.27;13.68;;;;;;;8.93;44.51;103128.91;4993036;28;20034;-66
2024/01/12 03:01:23;;;;;;;35.00;11.85;;;;;;;8.92;44.23;103129.81;4992989;28;20402;-66
2024/01/12 03:03:49;;;;;;;35.80;14.75;;;;;;;8.91;44.49;103130.75;4992869;28;20034;-66
2024/01/12 03:06:14;;;;;;;40.25;13.38;;;;;;;8.91;45.05;103134.28;4992935;28;20034;-66
2024/01/12 03:08:40;;;;;;;45.92;14.70;;;;;;;8.91;44.52;103130.75;4994259;28;20184;-66
2024/01/12 03:11:06;;;;;;;41.47;14.55;;;;;;;8.91;44.58;103130.75;4994269;28;20037;-67
2024/01/12 03:13:33;;;;;;;43.55;13.52;;;;;;;8.89;44.66;103121.91;4993199;28;20034;-66
2024/01/12 03:15:58;;;;;;;43.92;14.95;;;;;;;8.89;44.41;103122.78;4993967;28;20035;-66
2024/01/12 03:18:24;;;;;;;40.42;14.68;;;;;;;8.87;44.23;103108.63;4993995;28;20061;-66
2024/01/12 03:20:49;;;;;;;49.95;14.45;;;;;;;8.87;45.28;103115.78;4993933;28;20035;-66
2024/01/12 03:23:14;;;;;;;54.17;15.98;;;;;;;8.88;44.64;103105.00;4992607;28;20034;-66
2024/01/12 03:25:40;;;;;;;39.97;15.80;;;;;;;8.89;44.75;103111.22;4976358;28;20454;-66
2024/01/12 03:28:05;;;;;;;63.92;17.00;;;;;;;8.89;45.06;103111.22;4992689;28;20049;-66
2024/01/12 03:30:31;;;;;;;51.60;15.23;;;;;;;8.88;44.70;103105.00;4992564;28;20498;-65
2024/01/12 03:32:56;;;;;;;67.38;16.75;;;;;;;8.89;44.59;103111.22;4976393;28;20134;-66
2024/01/12 03:35:21;;;;;;;62.88;15.95;;;;;;;8.87;45.10;103110.44;4992454;28;20034;-66
2024/01/12 03:37:47;;;;;;;59.63;16.40;;;;;;;8.86;44.66;103114.03;4993412;28;20088;-67
2024/01/12 03:40:12;;;;;;;57.38;17.65;;;;;;;8.86;45.02;103106.88;4992597;28;20085;-66
2024/01/12 03:42:38;;;;;;;59.03;17.42;;;;;;;8.89;44.78;103117.47;4993795;28;20029;-66
2024/01/12 03:45:04;;;;;;;51.65;17.00;;;;;;;8.87;45.29;103107.75;4992823;28;20026;-66
2024/01/12 03:47:29;;;;;;;67.28;16.15;;;;;;;8.88;44.54;103105.00;4993721;28;20018;-66
2024/01/12 03:49:54;;;;;;;61.40;18.42;;;;;;;8.90;44.44;103113.84;4992395;28;20149;-66
2024/01/12 03:52:20;;;;;;;54.80;17.92;;;;;;;8.90;45.06;103107.63;4975995;28;20022;-66
2024/01/12 03:54:45;;;;;;;63.15;16.73;;;;;;;8.90;45.19;103107.63;4992526;28;20446;-66
2024/01/12 03:57:11;;;;;;;61.20;17.98;;;;;;;8.89;44.54;103104.09;4975992;28;20075;-66
2024/01/12 03:59:36;;;;;;;76.28;17.90;;;;;;;8.88;45.45;103099.66;4992553;28;20101;-66
2024/01/12 04:02:01;;;;;;;57.28;18.55;;;;;;;8.84;45.79;103087.38;4992238;28;20026;-66
2024/01/12 04:04:27;;;;;;;66.10;17.20;;;;;;;8.89;45.03;103095.19;4976260;28;20548;-66
2024/01/12 04:06:53;;;;;;;69.43;16.13;;;;;;;8.87;44.99;103091.72;4992401;28;20026;-66
2024/01/12 04:09:19;;;;;;;50.00;17.77;;;;;;;8.86;44.52;103089.97;4992288;28;20072;-66
2024/01/12 04:11:44;;;;;;;54.75;18.10;;;;;;;8.88;45.15;103094.31;4992323;28;20023;-66
2024/01/12 04:14:09;;;;;;;66.88;17.50;;;;;;;8.86;45.38;103089.97;4993475;28;20106;-66
2024/01/12 04:16:35;;;;;;;57.15;16.83;;;;;;;8.86;44.84;103089.97;4976318;28;20505;-66
2024/01/12 04:19:00;;;;;;;62.58;16.63;;;;;;;8.86;45.22;103098.00;4992394;28;20109;-66
2024/01/12 04:21:26;;;;;;;65.05;17.05;;;;;;;8.87;45.46;103097.94;4993979;28;20501;-66
2024/01/12 04:23:51;;;;;;;68.28;18.52;;;;;;;8.86;44.86;103095.31;4993652;28;20072;-66
2024/01/12 04:26:17;;;;;;;64.57;17.40;;;;;;;8.85;44.82;103088.25;4976043;28;20478;-66
2024/01/12 04:28:42;;;;;;;65.63;17.13;;;;;;;8.87;45.00;103097.06;4993387;28;20027;-65
2024/01/12 04:31:07;;;;;;;60.78;17.92;;;;;;;8.85;45.19;103088.25;4992161;28;20026;-66
2024/01/12 04:33:34;;;;;;;59.67;18.13;;;;;;;8.84;45.22;103094.53;4992001;28;20025;-66
2024/01/12 04:35:59;;;;;;;59.53;18.05;;;;;;;8.84;44.74;103089.19;4975597;28;20045;-66
2024/01/12 04:38:26;;;;;;;54.03;17.95;;;;;;;8.81;45.49;103091.97;4975601;28;20474;-66
2024/01/12 04:40:52;;;;;;;67.00;19.48;;;;;;;8.84;44.87;103091.84;4991797;28;20026;-66
2024/01/12 04:43:17;;;;;;;70.40;18.85;;;;;;;8.85;45.28;103093.59;4993378;28;20029;-66
2024/01/12 04:45:42;;;;;;;73.90;18.55;;;;;;;8.85;45.43;103091.78;4993295;28;20030;-66
2024/01/12 04:48:08;;;;;;;80.20;21.83;;;;;;;8.84;44.97;103081.16;4991879;28;20023;-66
2024/01/12 04:50:33;;;;;;;70.82;20.05;;;;;;;8.83;45.74;103079.41;4975654;28;20121;-66
2024/01/12 04:52:59;;;;;;;79.43;21.13;;;;;;;8.85;45.56;103082.91;4993175;28;20058;-65
2024/01/12 04:55:25;;;;;;;76.43;21.73;;;;;;;8.85;45.68;103080.25;4993262;28;20503;-66
2024/01/12 04:57:50;;;;;;;62.22;20.02;;;;;;;8.88;45.72;103075.63;4991429;28;20502;-66
2024/01/12 05:00:18;;;;;;;68.80;19.48;;;;;;;8.89;46.01;103089.84;4991815;28;20037;-66
2024/01/12 05:02:43;;;;;;;83.68;22.83;;;;;;;8.89;45.27;103079.16;4993186;28;20030;-66
2024/01/12 05:05:08;;;;;;;71.10;19.88;;;;;;;8.91;44.59;103087.97;4977990;28;20045;-66
2024/01/12 05:07:34;;;;;;;82.88;20.77;;;;;;;8.91;45.41;103083.50;4995184;28;20038;-66
2024/01/12 05:10:00;;;;;;;81.90;22.52;;;;;;;8.94;45.77;103082.50;4978979;28;20038;-66
2024/01/12 05:12:25;;;;;;;65.88;18.45;;;;;;;8.94;45.72;103086.06;4978926;28;20509;-66
2024/01/12 05:14:50;;;;;;;70.93;21.50;;;;;;;8.96;45.34;103086.00;4978871;28;20045;-66
2024/01/12 05:17:16;;;;;;;69.07;20.08;;;;;;;8.96;45.79;103086.84;4996283;28;20026;-66
2024/01/12 05:19:41;;;;;;;57.63;18.15;;;;;;;8.98;45.54;103085.00;4994907;28;20117;-66
2024/01/12 05:22:07;;;;;;;80.25;22.20;;;;;;;8.97;45.99;103088.59;4995067;28;20031;-65
2024/01/12 05:24:33;;;;;;;78.72;21.42;;;;;;;8.99;45.08;103088.56;4994847;28;20061;-65
2024/01/12 05:26:58;;;;;;;77.65;20.35;;;;;;;9.02;46.01;103093.75;4994934;28;20100;-65
2024/01/12 05:29:24;;;;;;;83.13;20.35;;;;;;;9.00;45.07;103088.47;4994702;28;20030;-65
2024/01/12 05:31:49;;;;;;;79.45;19.52;;;;;;;9.01;45.77;103089.34;4994802;28;20517;-66
2024/01/12 05:34:15;;;;;;;75.35;19.83;;;;;;;9.01;45.49;103089.34;4996118;28;20113;-66
2024/01/12 05:36:40;;;;;;;72.85;19.58;;;;;;;8.96;45.84;103075.31;4996009;28;20042;-65
2024/01/12 05:39:06;;;;;;;73.75;20.25;;;;;;;8.98;45.67;103077.00;4996144;28;20457;-66
2024/01/12 05:41:32;;;;;;;81.80;22.38;;;;;;;9.01;45.06;103079.53;4994732;28;20041;-65
2024/01/12 05:43:58;;;;;;;78.68;20.60;;;;;;;9.02;45.51;103085.72;4978718;28;20065;-66
2024/01/12 05:46:23;;;;;;;85.95;23.02;;;;;;;9.01;45.96;103084.00;4995908;28;20031;-66
2024/01/12 05:48:49;;;;;;;77.47;21.08;;;;;;;9.01;45.52;103081.34;4978135;28;20030;-65
2024/01/12 05:51:15;;;;;;;68.53;18.88;;;;;;;9.01;45.31;103076.00;4978251;28;20026;-66
2024/01/12 05:53:40;;;;;;;93.78;22.00;;;;;;;8.99;45.73;103075.19;4978191;28;20030;-66
2024/01/12 05:56:06;;;;;;;93.53;22.55;;;;;;;9.01;45.74;103081.34;4974447;28;20101;-66
2024/01/12 05:58:31;;;;;;;78.95;20.40;;;;;;;9.00;45.23;103076.91;4963471;28;20057;-66
2024/01/12 06:00:56;;;;;;;80.65;21.45;;;;;;;8.95;45.51;103066.44;4994207;28;20520;-66
2024/01/12 06:03:22;;;;;;;67.25;19.67;;;;;;;8.98;45.54;103073.44;4994295;28;20085;-66
2024/01/12 06:05:50;;;;;;;62.03;18.75;;;;;;;8.99;45.63;103080.53;4994251;28;20390;-66
2024/01/12 06:08:16;;;;;;;75.93;20.08;;;;;;;9.00;45.35;103087.59;4978330;28;20027;-65
2024/01/12 06:10:42;;;;;;;92.85;22.45;;;;;;;8.99;45.91;103085.88;4994042;28;20084;-65
2024/01/12 06:13:07;;;;;;;95.72;21.75;;;;;;;9.01;45.98;103092.91;4994028;28;20084;-65
2024/01/12 06:15:33;;;;;;;68.20;20.23;;;;;;;8.99;45.28;103096.59;4994100;28;20409;-66
2024/01/12 06:17:59;;;;;;;59.83;19.23;;;;;;;9.01;45.68;103100.94;4995349;28;20106;-66
2024/01/12 06:20:25;;;;;;;77.40;21.30;;;;;;;9.02;45.61;103096.44;4977819;28;20030;-66
2024/01/12 06:22:50;;;;;;;74.00;21.92;;;;;;;9.04;45.97;103113.28;4995189;28;20398;-66
2024/01/12 06:25:16;;;;;;;78.45;21.00;;;;;;;9.05;45.49;103107.00;4995346;28;20034;-66
2024/01/12 06:27:41;;;;;;;80.97;22.90;;;;;;;9.04;46.00;103106.16;4994323;28;20117;-66
2024/01/12 06:30:07;;;;;;;70.25;20.13;;;;;;;9.07;45.66;103113.16;4969981;28;20032;-66
2024/01/12 06:32:33;;;;;;;81.68;21.00;;;;;;;9.07;45.25;103113.16;4966694;28;20085;-66
2024/01/12 06:34:58;;;;;;;65.88;20.45;;;;;;;9.07;45.30;103110.50;4990706;28;20038;-66
2024/01/12 06:37:24;;;;;;;79.05;23.58;;;;;;;9.08;45.79;103117.56;4990685;28;20038;-66
2024/01/12 06:39:49;;;;;;;80.30;19.95;;;;;;;9.08;45.90;103121.09;4986723;28;20038;-66
2024/01/12 06:42:15;;;;;;;97.97;22.05;;;;;;;9.10;45.89;103121.06;4994919;28;20035;-65
2024/01/12 06:44:41;;;;;;;78.95;21.77;;;;;;;9.11;46.01;103125.47;4993628;28;20494;-67
2024/01/12 06:47:07;;;;;;;83.18;22.15;;;;;;;9.12;45.51;103113.84;4994760;28;20034;-67
2024/01/12 06:49:33;;;;;;;73.25;20.92;;;;;;;9.11;46.19;103117.44;4974189;28;20406;-65
2024/01/12 06:51:59;;;;;;;60.90;20.58;;;;;;;9.14;46.01;103122.66;4961500;28;20031;-66
2024/01/12 06:54:24;;;;;;;71.30;21.42;;;;;;;9.14;45.81;103118.19;4981997;28;20049;-66
2024/01/12 06:56:52;;;;;;;78.00;22.42;;;;;;;9.17;45.69;103122.53;4994084;28;20042;-66
2024/01/12 06:59:18;;;;;;;72.82;19.58;;;;;;;9.18;45.35;103118.94;4992032;28;20491;-66
2024/01/12 07:01:44;;;;;;;66.90;20.00;;;;;;;9.17;45.51;103122.53;4993406;28;20117;-66
2024/01/12 07:04:09;;;;;;;70.60;20.60;;;;;;;9.17;45.62;103127.88;4993379;28;20121;-66
2024/01/12 07:06:35;;;;;;;80.05;19.00;;;;;;;9.19;46.32;103123.34;4973637;28;20031;-67
2024/01/12 07:09:00;;;;;;;65.28;19.73;;;;;;;9.20;46.39;103123.28;4982639;28;20031;-66
2024/01/12 07:11:26;;;;;;;72.68;23.00;;;;;;;9.23;45.80;103122.28;4992956;28;20093;-66
2024/01/12 07:13:51;;;;;;;73.50;20.80;;;;;;;9.22;46.18;103120.53;4993085;28;20030;-66
2024/01/12 07:16:17;;;;;;;81.22;22.40;;;;;;;9.22;46.42;103116.06;4994339;28;20402;-66
2024/01/12 07:18:42;;;;;;;69.05;21.33;;;;;;;9.22;45.77;103116.06;4994281;28;20027;-66
2024/01/12 07:21:08;;;;;;;77.30;22.90;;;;;;;9.23;45.80;103112.47;4992806;28;20170;-66
2024/01/12 07:23:33;;;;;;;80.63;23.38;;;;;;;9.23;45.92;103115.13;4992691;28;20034;-66
2024/01/12 07:26:00;;;;;;;71.18;21.17;;;;;;;9.23;45.77;103114.25;4992799;28;20038;-66
2024/01/12 07:28:26;;;;;;;91.72;23.33;;;;;;;9.23;46.27;103112.47;4976475;28;20076;-66
2024/01/12 07:30:53;;;;;;;86.28;24.33;;;;;;;9.21;46.23;103102.78;4992751;28;20118;-66
2024/01/12 07:33:19;;;;;;;79.88;22.95;;;;;;;9.20;46.37;103099.22;4992502;28;20498;-66
2024/01/12 07:35:44;;;;;;;74.53;20.48;;;;;;;9.20;45.89;103104.56;4993745;28;20105;-66
2024/01/12 07:38:10;;;;;;;76.65;23.98;;;;;;;9.21;45.74;103108.13;4973022;28;20063;-66
2024/01/12 07:40:35;;;;;;;64.03;20.27;;;;;;;9.18;46.07;103100.22;4982241;28;20401;-66
2024/01/12 07:43:01;;;;;;;75.20;23.00;;;;;;;9.19;45.92;103102.81;4992692;28;20112;-66
2024/01/12 07:45:26;;;;;;;75.68;21.63;;;;;;;9.21;45.87;103111.63;4992823;28;20053;-66
2024/01/12 07:47:51;;;;;;;69.22;22.65;;;;;;;9.23;46.15;103114.25;4973358;28;20039;-66
2024/01/12 07:50:17;;;;;;;75.50;22.98;;;;;;;9.23;45.96;103115.13;4983688;28;20037;-66
2024/01/12 07:52:42;;;;;;;87.05;23.08;;;;;;;9.24;45.85;103105.31;4975168;28;20410;-66
2024/01/12 07:55:08;;;;;;;83.70;23.48;;;;;;;9.24;46.19;103108.84;4973242;28;20115;-66
2024/01/12 07:57:33;;;;;;;74.25;21.98;;;;;;;9.25;46.35;103113.25;4972713;28;20481;-66
2024/01/12 07:59:59;;;;;;;71.50;22.38;;;;;;;9.28;46.19;103125.63;4973358;28;20031;-66
2024/01/12 08:02:25;;;;;;;76.93;23.15;;;;;;;9.27;46.61;103123.88;4974307;28;20067;-66
2024/01/12 08:04:50;;;;;;;77.38;22.67;;;;;;;9.27;45.47;103118.53;4972715;28;20082;-66
2024/01/12 08:07:16;;;;;;;79.80;23.58;;;;;;;9.29;46.25;103122.03;4972549;28;20105;-66
2024/01/12 08:09:41;;;;;;;79.18;22.52;;;;;;;9.27;46.10;103126.56;4974038;28;20082;-66
2024/01/12 08:12:07;;;;;;;63.08;21.73;;;;;;;9.30;45.91;103129.97;4972809;28;20057;-66
2024/01/12 08:14:32;;;;;;;71.43;22.63;;;;;;;9.30;46.25;103129.09;4972686;28;20502;-66
2024/01/12 08:16:57;;;;;;;64.72;23.20;;;;;;;9.28;45.44;103123.84;4974031;28;20038;-66
2024/01/12 08:19:23;;;;;;;84.63;24.35;;;;;;;9.30;46.20;103115.72;4972609;28;20039;-66
2024/01/12 08:21:49;;;;;;;77.28;22.40;;;;;;;9.30;45.59;103121.97;4956781;28;20034;-66
2024/01/12 08:24:14;;;;;;;73.20;21.13;;;;;;;9.32;45.77;103128.09;4973998;28;20403;-66
2024/01/12 08:26:40;;;;;;;67.05;19.77;;;;;;;9.35;45.96;103127.97;4956599;28;20035;-66
2024/01/12 08:29:05;;;;;;;69.80;23.13;;;;;;;9.35;46.14;103122.63;4974262;28;20031;-66
2024/01/12 08:31:30;;;;;;;65.15;19.45;;;;;;;9.37;46.06;103122.56;4974598;28;20057;-66
2024/01/12 08:33:56;;;;;;;71.82;22.60;;;;;;;9.37;45.98;103119.91;4972766;28;20034;-66
2024/01/12 08:36:22;;;;;;;71.22;22.73;;;;;;;9.35;46.14;103111.09;4972803;28;20058;-66
2024/01/12 08:38:47;;;;;;;71.15;21.98;;;;;;;9.38;45.59;103123.44;4974023;28;20073;-66
2024/01/12 08:41:13;;;;;;;73.78;22.67;;;;;;;9.37;46.18;103125.25;4977408;28;20057;-66
2024/01/12 08:43:39;;;;;;;76.60;23.48;;;;;;;9.36;45.76;103123.50;4976215;28;20027;-66
2024/01/12 08:46:04;;;;;;;69.40;20.60;;;;;;;9.35;46.12;103127.97;4960011;28;20034;-65
2024/01/12 08:48:30;;;;;;;58.40;21.30;;;;;;;9.37;45.76;103138.63;4976179;28;20517;-68
2024/01/12 08:50:55;;;;;;;61.42;20.88;;;;;;;9.37;46.06;103135.94;4976097;28;20039;-66
2024/01/12 08:53:20;;;;;;;74.78;23.50;;;;;;;9.37;45.62;103133.28;4975922;28;20049;-65
2024/01/12 08:55:46;;;;;;;73.43;21.80;;;;;;;9.39;46.30;103134.06;4977045;28;20528;-65
2024/01/12 08:58:12;;;;;;;67.28;20.67;;;;;;;9.37;45.83;103130.59;4959764;28;20039;-66
2024/01/12 09:00:37;;;;;;;68.22;20.33;;;;;;;9.37;45.88;103133.28;4975918;28;20117;-65
2024/01/12 09:03:03;;;;;;;70.22;22.27;;;;;;;9.40;46.17;103130.47;4976057;28;20097;-66
2024/01/12 09:05:28;;;;;;;69.22;21.17;;;;;;;9.40;46.63;103146.53;4975814;28;20042;-66
2024/01/12 09:07:54;;;;;;;62.33;20.45;;;;;;;9.41;45.46;103148.25;4959521;28;20529;-65
2024/01/12 09:10:19;;;;;;;68.95;21.75;;;;;;;9.43;45.97;103146.41;4975621;28;20097;-66
2024/01/12 09:12:44;;;;;;;64.93;21.90;;;;;;;9.44;45.98;103147.25;4975761;28;20046;-66
2024/01/12 09:15:10;;;;;;;68.97;20.02;;;;;;;9.46;46.36;103150.75;4975602;28;20034;-66
2024/01/12 09:17:36;;;;;;;68.57;22.08;;;;;;;9.45;45.94;103147.19;4975700;28;20121;-66
2024/01/12 09:20:01;;;;;;;69.05;21.23;;;;;;;9.47;46.03;103145.31;4975754;28;20467;-66
2024/01/12 09:22:26;;;;;;;68.60;21.25;;;;;;;9.49;45.59;103146.09;4975524;28;20126;-66
2024/01/12 09:24:52;;;;;;;60.97;19.00;;;;;;;9.52;46.22;103139.78;4976568;28;20074;-66
2024/01/12 09:27:17;;;;;;;62.85;20.55;;;;;;;9.51;46.75;103141.59;4976549;28;20023;-65
2024/01/12 09:29:43;;;;;;;66.60;21.48;;;;;;;9.54;46.48;103144.13;4975532;28;20507;-66
2024/01/12 09:32:09;;;;;;;60.42;18.98;;;;;;;9.57;46.14;103143.13;4975523;28;20027;-66
2024/01/12 09:34:34;;;;;;;63.38;17.95;;;;;;;9.56;46.59;103136.91;4959108;28;20447;-66
2024/01/12 09:36:59;;;;;;;65.35;18.90;;;;;;;9.62;45.93;103142.00;4976400;28;20077;-65
2024/01/12 09:39:25;;;;;;;63.20;19.50;;;;;;;9.63;46.37;103135.69;4975433;28;20039;-66
2024/01/12 09:41:51;;;;;;;56.70;19.63;;;;;;;9.68;46.15;103147.09;4975178;28;20089;-67
2024/01/12 09:44:20;;;;;;;56.33;19.17;;;;;;;9.70;46.21;103153.22;4975339;28;20035;-66
2024/01/12 09:46:56;;;;;;;56.90;18.27;;;;;;;9.73;45.61;103158.44;4975192;28;20027;-66
2024/01/12 09:49:23;;;;;;;66.57;17.70;;;;;;;9.74;46.10;103154.81;4974886;28;20101;-66
2024/01/12 09:51:48;;;;;;;64.72;19.05;;;;;;;9.77;46.08;103151.16;4976155;28;20035;-66
2024/01/12 09:54:14;;;;;;;56.40;17.85;;;;;;;9.78;46.76;103145.72;4958696;28;20054;-66
2024/01/12 09:56:41;;;;;;;59.63;17.50;;;;;;;9.80;46.12;103146.53;4975931;28;20039;-65
2024/01/12 09:59:06;;;;;;;50.83;17.85;;;;;;;9.82;46.12;103150.03;4975112;28;20043;-66
2024/01/12 10:01:32;;;;;;;51.30;15.73;;;;;;;9.83;46.23;103146.41;4958882;28;20116;-66
2024/01/12 10:03:58;;;;;;;43.67;16.05;;;;;;;9.87;46.28;103147.13;4976160;28;20026;-66
2024/01/12 10:06:25;;;;;;;48.90;16.70;;;;;;;9.89;46.24;103138.09;4974990;28;20042;-66
2024/01/12 10:08:50;;;;;;;44.95;15.95;;;;;;;9.90;46.06;103134.50;4974848;28;20062;-66
2024/01/12 10:11:15;;;;;;;38.30;15.82;;;;;;;9.93;46.13;103137.03;4975866;28;20125;-66
2024/01/12 10:13:41;;;;;;;43.45;16.38;;;;;;;9.91;45.80;103133.53;4974472;28;20526;-66
2024/01/12 10:16:09;;;;;;;46.17;15.38;;;;;;;9.95;46.15;103145.88;4975594;28;20126;-66
2024/01/12 10:18:35;;;;;;;51.28;17.27;;;;;;;9.95;45.64;103143.19;4974524;28;20498;-66
2024/01/12 10:21:00;;;;;;;33.00;13.55;;;;;;;9.96;46.20;103149.41;4975647;28;20114;-66
2024/01/12 10:23:26;;;;;;;28.58;10.20;;;;;;;9.98;46.03;103154.69;4958202;28;20039;-66
2024/01/12 10:25:59;;;;;;;32.88;11.30;;;;;;;10.01;46.34;103143.84;4974528;28;20037;-66
2024/01/12 10:28:31;;;;;;;35.33;14.10;;;;;;;10.01;46.03;103155.44;4975520;28;20035;-66
2024/01/12 10:30:57;;;;;;;40.45;14.70;;;;;;;10.04;46.20;103159.78;4975438;28;20035;-66
2024/01/12 10:33:23;;;;;;;42.42;14.85;;;;;;;10.05;45.89;103156.16;4974304;28;20443;-67
2024/01/12 10:35:57;;;;;;;36.53;15.80;;;;;;;10.08;46.34;103156.03;4957903;28;20058;-66
2024/01/12 10:38:23;;;;;;;51.97;16.00;;;;;;;10.09;46.10;103157.75;4974966;28;20069;-66
2024/01/12 10:40:50;;;;;;;29.73;11.52;;;;;;;10.10;46.27;103152.34;4974086;28;20066;-66
2024/01/12 10:43:16;;;;;;;24.75;10.27;;;;;;;10.14;46.06;103150.41;4974052;28;20388;-66
2024/01/12 10:45:44;;;;;;;21.02;8.73;;;;;;;10.17;45.62;103144.91;4958102;28;20109;-66
2024/01/12 10:48:11;;;;;;;24.05;9.85;;;;;;;10.20;46.21;103144.78;4957942;28;20089;-66
2024/01/12 10:50:41;;;;;;;21.17;9.40;;;;;;;10.24;46.00;103124.97;4973947;28;20023;-66
2024/01/12 10:53:27;;;;;;;20.38;9.68;;;;;;;10.27;46.31;103119.47;4957893;28;20022;-66
2024/01/12 10:55:58;;;;;;;35.35;10.35;;;;;;;10.31;45.87;103118.38;4974439;28;20602;-66
2024/01/12 10:58:24;;;;;;;31.20;10.70;;;;;;;10.31;45.29;103105.84;4974141;28;20089;-66
2024/01/12 11:00:49;;;;;;;21.95;8.75;;;;;;;10.34;46.42;103110.19;4973713;28;20034;-67
2024/01/12 11:03:15;;;;;;;22.83;8.55;;;;;;;10.36;45.40;103103.81;4973046;28;20039;-66
2024/01/12 11:05:44;;;;;;;27.10;9.13;;;;;;;10.39;45.78;103108.16;4957497;28;20475;-67
2024/01/12 11:08:11;;;;;;;20.20;7.15;;;;;;;10.41;45.80;103095.59;4975146;28;20041;-66
2024/01/12 11:10:42;;;;;;;26.30;9.10;;;;;;;10.42;45.68;103098.19;4973602;28;20426;-67